Time;durP1;ratioP1;P1;durP2;ratioP2;P2;SDS_P1;SDS_P2;PMS_P1;PMS_P2;Temp;Humidity;BMP_temperature;BMP_pressure;BME280_temperature;BME280_humidity;BME280_pressure;Samples;Min_cycle;Max_cycle;Signal;HPM_P1;HPM_P2
2021/07/05 00:02:25;;;;;;;8.35;4.45;;;16.80;99.90;;;;;;5056755;28;20063;-46
2021/07/05 00:04:51;;;;;;;4.32;3.90;;;16.80;99.90;;;;;;5071363;28;20036;-42
2021/07/05 00:07:17;;;;;;;3.90;3.53;;;16.70;99.90;;;;;;5067080;28;20029;-42
2021/07/05 00:09:43;;;;;;;5.95;3.40;;;16.70;99.90;;;;;;5051653;28;20033;-43
2021/07/05 00:12:09;;;;;;;5.07;3.67;;;16.70;99.90;;;;;;5053060;28;20037;-44
2021/07/05 00:14:36;;;;;;;8.88;4.30;;;16.80;99.90;;;;;;5071462;28;20092;-43
2021/07/05 00:17:03;;;;;;;7.28;4.07;;;16.70;99.90;;;;;;5071249;28;20435;-42
2021/07/05 00:19:29;;;;;;;7.63;3.15;;;16.70;99.90;;;;;;5071274;28;20090;-42
2021/07/05 00:21:54;;;;;;;4.55;3.47;;;16.70;99.90;;;;;;5071259;28;20028;-43
2021/07/05 00:24:20;;;;;;;6.43;3.15;;;16.70;99.90;;;;;;5051317;28;20033;-45
2021/07/05 00:26:46;;;;;;;10.77;3.60;;;16.70;99.90;;;;;;5051229;28;20021;-44
2021/07/05 00:29:12;;;;;;;3.80;3.35;;;16.60;99.90;;;;;;5052372;28;20087;-42
2021/07/05 00:31:38;;;;;;;11.65;4.38;;;16.60;99.90;;;;;;5050890;28;20032;-44
2021/07/05 00:34:03;;;;;;;5.75;3.17;;;16.60;99.90;;;;;;5051830;28;20025;-43
2021/07/05 00:36:29;;;;;;;6.15;3.58;;;16.50;99.90;;;;;;5051095;28;20103;-42
2021/07/05 00:38:55;;;;;;;4.28;2.60;;;16.60;99.90;;;;;;5052372;28;20108;-43
2021/07/05 00:41:20;;;;;;;8.63;3.17;;;16.50;99.90;;;;;;5050947;28;20033;-42
2021/07/05 00:43:46;;;;;;;6.05;3.47;;;16.50;99.90;;;;;;5066006;28;20037;-42
2021/07/05 00:46:11;;;;;;;14.68;6.20;;;16.50;99.90;;;;;;5071328;28;20064;-43
2021/07/05 00:48:37;;;;;;;6.50;3.90;;;16.50;99.90;;;;;;5068646;28;20191;-43
2021/07/05 00:51:02;;;;;;;4.63;3.25;;;16.50;99.90;;;;;;5070290;28;20028;-45
2021/07/05 00:53:28;;;;;;;5.78;3.42;;;16.50;99.90;;;;;;5058242;28;20045;-43
2021/07/05 00:56:05;;;;;;;12.68;3.28;;;16.50;99.90;;;;;;5050407;28;20021;-42
2021/07/05 00:58:31;;;;;;;8.35;3.08;;;16.50;99.90;;;;;;5051812;28;20045;-44
2021/07/05 01:00:56;;;;;;;13.32;4.18;;;16.50;99.90;;;;;;5055661;28;20033;-42
2021/07/05 01:03:22;;;;;;;6.18;3.28;;;16.60;99.90;;;;;;5070576;28;20055;-41
2021/07/05 01:05:47;;;;;;;4.20;3.35;;;16.50;99.90;;;;;;5069267;28;20512;-42
2021/07/05 01:08:13;;;;;;;6.75;3.67;;;16.50;99.90;;;;;;5070827;28;20428;-44
2021/07/05 01:10:39;;;;;;;7.18;2.85;;;16.40;99.90;;;;;;5069080;28;20081;-45
2021/07/05 01:13:05;;;;;;;9.32;3.17;;;16.40;99.90;;;;;;5050996;28;20414;-46
2021/07/05 01:15:32;;;;;;;9.15;3.42;;;16.40;99.90;;;;;;5049703;28;20044;-39
2021/07/05 01:18:02;;;;;;;6.22;3.72;;;16.40;99.90;;;;;;5069491;28;20032;-44
2021/07/05 01:20:30;;;;;;;9.20;4.28;;;16.40;99.90;;;;;;5069847;28;20021;-42
2021/07/05 01:22:56;;;;;;;6.57;4.25;;;16.40;99.90;;;;;;5068177;28;20031;-42
2021/07/05 01:25:25;;;;;;;5.38;3.55;;;16.40;99.90;;;;;;5069574;28;20020;-45
2021/07/05 01:27:51;;;;;;;6.25;3.58;;;16.40;99.90;;;;;;5064654;28;20175;-44
2021/07/05 01:30:19;;;;;;;5.95;3.53;;;16.40;99.90;;;;;;5068222;28;20067;-44
2021/07/05 01:32:45;;;;;;;5.13;3.05;;;16.40;99.90;;;;;;5069835;28;20089;-44
2021/07/05 01:35:12;;;;;;;10.32;3.55;;;16.40;99.90;;;;;;5057375;28;20098;-42
2021/07/05 01:37:38;;;;;;;7.57;3.17;;;16.40;99.90;;;;;;5053312;28;20033;-44
2021/07/05 01:40:07;;;;;;;6.13;3.40;;;16.50;99.90;;;;;;5054258;28;20056;-44
2021/07/05 01:42:34;;;;;;;8.07;3.55;;;16.50;99.90;;;;;;5054295;28;20037;-45
2021/07/05 01:45:02;;;;;;;7.50;3.35;;;16.50;99.90;;;;;;5062724;28;20704;-45
2021/07/05 01:47:28;;;;;;;12.45;3.20;;;16.60;99.90;;;;;;5073143;28;20033;-43
2021/07/05 01:49:53;;;;;;;6.45;3.00;;;16.50;99.90;;;;;;5071546;28;20032;-46
2021/07/05 01:52:19;;;;;;;7.55;3.28;;;16.50;99.90;;;;;;5073208;28;20078;-47
2021/07/05 01:54:44;;;;;;;10.15;3.20;;;16.40;99.90;;;;;;5053037;28;20025;-46
2021/07/05 01:57:24;;;;;;;9.18;4.00;;;16.40;99.90;;;;;;5072778;28;20028;-49
2021/07/05 01:59:55;;;;;;;3.53;3.08;;;16.40;99.90;;;;;;5070589;28;20063;-46
2021/07/05 02:02:22;;;;;;;7.90;3.92;;;16.40;99.90;;;;;;5073071;28;20028;-45
2021/07/05 02:04:49;;;;;;;10.57;3.83;;;16.40;99.90;;;;;;5065866;28;20091;-46
2021/07/05 02:07:15;;;;;;;6.20;3.13;;;16.40;99.90;;;;;;5052631;28;20092;-45
2021/07/05 02:09:41;;;;;;;3.30;3.00;;;16.50;99.90;;;;;;5053695;28;20029;-45
2021/07/05 02:12:07;;;;;;;15.82;3.85;;;16.50;99.90;;;;;;5052671;28;20091;-43
2021/07/05 02:14:33;;;;;;;7.10;3.25;;;16.50;99.90;;;;;;5055422;28;20036;-42
2021/07/05 02:16:58;;;;;;;7.18;3.30;;;16.50;99.90;;;;;;5072881;28;20405;-43
2021/07/05 02:19:24;;;;;;;5.00;3.45;;;16.50;99.90;;;;;;5070875;28;20036;-43
2021/07/05 02:21:49;;;;;;;13.85;3.95;;;16.50;99.90;;;;;;5072680;28;20033;-44
2021/07/05 02:24:15;;;;;;;4.80;3.65;;;16.50;99.90;;;;;;5054541;28;20032;-42
2021/07/05 02:26:42;;;;;;;10.05;3.80;;;16.50;99.90;;;;;;5052242;28;20025;-46
2021/07/05 02:29:07;;;;;;;5.68;3.10;;;16.40;99.90;;;;;;5035605;28;20074;-42
2021/07/05 02:31:34;;;;;;;8.15;3.55;;;16.40;99.90;;;;;;5052327;28;20501;-43
2021/07/05 02:34:00;;;;;;;6.20;3.20;;;16.40;99.90;;;;;;5066105;28;20039;-42
2021/07/05 02:36:25;;;;;;;7.93;3.35;;;16.40;99.90;;;;;;5072276;28;20036;-46
2021/07/05 02:38:50;;;;;;;6.03;3.38;;;16.30;99.90;;;;;;5059389;28;20040;-43
2021/07/05 02:41:16;;;;;;;9.25;3.67;;;16.30;99.90;;;;;;5052074;28;20044;-43
2021/07/05 02:43:42;;;;;;;7.55;3.70;;;16.30;99.90;;;;;;5052917;28;20417;-46
2021/07/05 02:46:08;;;;;;;16.17;4.53;;;16.20;99.90;;;;;;5051655;28;20086;-47
2021/07/05 02:48:34;;;;;;;11.55;3.97;;;16.30;99.90;;;;;;5061063;28;20393;-44
2021/07/05 02:51:05;;;;;;;7.25;3.70;;;16.20;99.90;;;;;;5049851;28;20083;-46
2021/07/05 02:53:32;;;;;;;10.40;3.80;;;16.20;99.90;;;;;;5052441;28;20080;-47
2021/07/05 02:55:57;;;;;;;13.02;4.05;;;16.30;99.90;;;;;;5036255;28;20032;-46
2021/07/05 02:58:24;;;;;;;13.02;4.30;;;16.30;99.90;;;;;;5052353;28;20037;-42
2021/07/05 03:00:53;;;;;;;8.20;3.95;;;16.30;99.90;;;;;;5052021;28;20340;-42
2021/07/05 03:03:19;;;;;;;10.60;5.65;;;16.40;99.90;;;;;;5051628;28;20021;-42
2021/07/05 03:05:45;;;;;;;34.03;23.17;;;16.40;99.90;;;;;;5052690;28;20036;-43
2021/07/05 03:08:12;;;;;;;17.88;5.45;;;16.40;99.90;;;;;;5051615;28;20402;-45
2021/07/05 03:10:38;;;;;;;8.43;4.13;;;16.50;99.90;;;;;;5052143;28;20600;-42
2021/07/05 03:13:07;;;;;;;11.10;4.15;;;16.50;99.90;;;;;;5071562;28;20039;-43
2021/07/05 03:15:33;;;;;;;7.78;3.67;;;16.60;99.90;;;;;;5053303;28;20500;-44
2021/07/05 03:17:58;;;;;;;8.25;3.67;;;16.60;99.90;;;;;;5070429;28;20041;-44
2021/07/05 03:20:27;;;;;;;8.30;3.13;;;16.70;99.90;;;;;;5053482;28;20029;-44
2021/07/05 03:22:54;;;;;;;10.55;3.83;;;16.70;99.90;;;;;;5069619;28;20078;-48
2021/07/05 03:25:21;;;;;;;6.03;2.92;;;16.70;99.90;;;;;;5071203;28;20103;-44
2021/07/05 03:27:48;;;;;;;7.65;2.72;;;16.70;99.90;;;;;;5069451;28;20028;-42
2021/07/05 03:30:15;;;;;;;9.15;3.42;;;16.70;99.90;;;;;;5060330;28;20086;-47
2021/07/05 03:32:41;;;;;;;10.38;3.30;;;16.70;99.90;;;;;;5068150;28;20489;-46
2021/07/05 03:35:08;;;;;;;5.57;3.22;;;16.80;99.90;;;;;;5061456;28;20056;-48
2021/07/05 03:37:34;;;;;;;5.57;2.83;;;16.80;99.90;;;;;;5050870;28;20057;-43
2021/07/05 03:40:00;;;;;;;5.30;2.60;;;16.70;99.90;;;;;;5052412;28;20060;-45
2021/07/05 03:42:26;;;;;;;7.47;2.63;;;16.70;99.90;;;;;;5051178;28;20107;-44
2021/07/05 03:44:51;;;;;;;11.05;2.63;;;16.70;99.90;;;;;;5056727;28;20116;-45
2021/07/05 03:47:17;;;;;;;6.38;2.65;;;16.70;99.90;;;;;;5071031;28;20020;-42
2021/07/05 03:49:42;;;;;;;12.93;3.20;;;16.70;99.90;;;;;;5069777;28;20024;-47
2021/07/05 03:52:08;;;;;;;3.92;2.58;;;16.80;99.90;;;;;;5071202;28;20029;-43
2021/07/05 03:54:34;;;;;;;6.00;2.60;;;16.80;99.90;;;;;;5068217;28;20029;-41
2021/07/05 03:56:59;;;;;;;6.68;3.35;;;16.80;99.90;;;;;;5050722;28;20037;-46
2021/07/05 03:59:25;;;;;;;8.70;2.80;;;16.90;99.90;;;;;;5051568;28;20024;-47
2021/07/05 04:01:51;;;;;;;5.90;2.78;;;16.90;99.90;;;;;;5033172;28;20437;-43
2021/07/05 04:04:16;;;;;;;8.27;2.28;;;16.90;99.90;;;;;;5051861;28;20098;-41
2021/07/05 04:06:42;;;;;;;10.77;2.90;;;16.90;99.90;;;;;;5070751;28;20028;-42
2021/07/05 04:09:08;;;;;;;6.47;2.72;;;16.90;99.90;;;;;;5070828;28;20029;-45
2021/07/05 04:11:34;;;;;;;6.55;3.03;;;17.00;99.90;;;;;;5052090;28;20068;-42
2021/07/05 04:14:00;;;;;;;8.77;2.55;;;17.00;99.90;;;;;;5051546;28;20018;-43
2021/07/05 04:16:26;;;;;;;3.20;2.55;;;17.10;99.90;;;;;;5069456;28;20036;-44
2021/07/05 04:18:52;;;;;;;5.18;2.92;;;17.00;99.90;;;;;;5071323;28;20114;-45
2021/07/05 04:21:20;;;;;;;6.53;3.67;;;17.00;99.90;;;;;;5050883;28;20067;-44
2021/07/05 04:23:46;;;;;;;4.68;2.78;;;17.00;99.90;;;;;;5070693;28;20052;-43
2021/07/05 04:26:12;;;;;;;4.97;3.05;;;17.10;99.90;;;;;;5055185;28;20036;-45
2021/07/05 04:28:37;;;;;;;10.13;3.63;;;17.00;99.90;;;;;;5050520;28;20029;-47
2021/07/05 04:31:03;;;;;;;7.30;3.10;;;17.10;99.90;;;;;;5051514;28;20029;-43
2021/07/05 04:33:28;;;;;;;4.47;3.10;;;17.10;99.90;;;;;;5050253;28;20033;-42
2021/07/05 04:35:54;;;;;;;10.93;2.70;;;17.10;99.90;;;;;;5061631;28;20060;-44
2021/07/05 04:38:20;;;;;;;4.60;2.47;;;17.10;99.90;;;;;;5070925;28;20541;-43
2021/07/05 04:40:46;;;;;;;9.05;2.92;;;17.20;99.90;;;;;;5068990;28;20063;-44
2021/07/05 04:43:11;;;;;;;8.45;2.83;;;17.20;99.90;;;;;;5070748;28;20040;-44
2021/07/05 04:45:38;;;;;;;3.92;2.45;;;17.30;99.90;;;;;;5061790;28;20367;-46
2021/07/05 04:48:06;;;;;;;3.38;3.05;;;17.20;99.90;;;;;;5050283;28;20036;-45
2021/07/05 04:50:33;;;;;;;7.97;3.20;;;17.20;99.90;;;;;;5051291;28;20304;-45
2021/07/05 04:52:59;;;;;;;4.65;2.88;;;17.20;99.90;;;;;;5050597;28;20055;-49
2021/07/05 04:55:27;;;;;;;5.88;2.80;;;17.20;99.90;;;;;;5055817;28;20081;-42
2021/07/05 04:57:53;;;;;;;14.40;3.13;;;17.30;99.90;;;;;;5069193;28;20095;-43
2021/07/05 05:00:26;;;;;;;5.90;2.67;;;17.30;99.90;;;;;;5050171;28;20090;-44
2021/07/05 05:02:52;;;;;;;3.53;2.58;;;17.40;99.90;;;;;;5050002;28;20028;-44
2021/07/05 05:05:20;;;;;;;5.28;2.78;;;17.40;99.90;;;;;;5050948;28;20052;-44
2021/07/05 05:07:45;;;;;;;15.75;2.97;;;17.40;99.90;;;;;;5050210;28;20017;-42
2021/07/05 05:10:13;;;;;;;5.75;2.67;;;17.30;99.90;;;;;;5071562;28;20032;-41
2021/07/05 05:12:39;;;;;;;9.10;3.17;;;17.40;99.90;;;;;;5074079;28;20028;-42
2021/07/05 05:15:07;;;;;;;4.38;3.85;;;17.30;99.90;;;;;;5053900;28;20028;-40
2021/07/05 05:17:33;;;;;;;10.98;2.97;;;17.30;99.90;;;;;;5074708;28;20074;-42
2021/07/05 05:19:58;;;;;;;5.38;2.72;;;17.30;99.90;;;;;;5057464;28;20037;-46
2021/07/05 05:22:24;;;;;;;3.45;3.15;;;17.30;99.90;;;;;;5035791;28;20037;-43
2021/07/05 05:24:50;;;;;;;6.22;3.25;;;17.30;99.90;;;;;;5054413;28;20079;-43
2021/07/05 05:27:15;;;;;;;3.97;3.58;;;17.20;99.90;;;;;;5053425;28;20108;-43
2021/07/05 05:29:41;;;;;;;9.30;3.92;;;17.20;99.90;;;;;;5054596;28;20025;-45
2021/07/05 05:32:07;;;;;;;7.68;4.03;;;17.30;99.90;;;;;;5053276;28;20083;-46
2021/07/05 05:34:33;;;;;;;7.85;3.58;;;17.30;99.90;;;;;;5054128;28;20028;-44
2021/07/05 05:36:59;;;;;;;7.40;3.85;;;17.30;99.90;;;;;;5053207;28;20086;-45
2021/07/05 05:39:24;;;;;;;6.05;3.33;;;17.20;99.90;;;;;;5056862;28;20044;-42
2021/07/05 05:41:50;;;;;;;9.30;4.50;;;17.20;99.90;;;;;;5062000;28;20024;-43
2021/07/05 05:44:15;;;;;;;5.88;4.10;;;17.20;99.90;;;;;;5073005;28;20029;-41
2021/07/05 05:46:41;;;;;;;12.32;3.75;;;17.20;99.90;;;;;;5071936;28;20032;-44
2021/07/05 05:49:06;;;;;;;11.25;4.18;;;17.10;99.90;;;;;;5073147;28;20104;-46
2021/07/05 05:51:33;;;;;;;6.95;3.50;;;17.10;99.90;;;;;;5071281;28;20025;-45
2021/07/05 05:54:04;;;;;;;10.02;4.55;;;17.20;99.90;;;;;;5073164;28;20115;-45
2021/07/05 05:56:33;;;;;;;4.88;3.65;;;17.20;99.90;;;;;;5067880;28;20099;-45
2021/07/05 05:59:02;;;;;;;7.57;4.13;;;17.20;99.90;;;;;;5054064;28;20112;-43
2021/07/05 06:01:29;;;;;;;5.45;4.10;;;17.10;99.90;;;;;;5053160;28;20619;-45
2021/07/05 06:03:54;;;;;;;7.40;4.53;;;17.10;99.90;;;;;;5053910;28;20032;-42
2021/07/05 06:06:20;;;;;;;5.60;5.15;;;17.10;99.90;;;;;;5052971;28;20024;-44
2021/07/05 06:08:45;;;;;;;7.78;4.25;;;17.20;99.90;;;;;;5053300;28;20025;-41
2021/07/05 06:11:11;;;;;;;6.03;4.68;;;17.30;99.90;;;;;;5072815;28;20025;-45
2021/07/05 06:13:37;;;;;;;7.65;4.18;;;17.30;99.90;;;;;;5072590;28;20021;-48
2021/07/05 06:16:03;;;;;;;6.07;3.78;;;17.20;99.90;;;;;;5070925;28;20032;-42
2021/07/05 06:18:28;;;;;;;8.80;4.68;;;17.30;99.90;;;;;;5072522;28;20150;-44
2021/07/05 06:20:54;;;;;;;5.65;3.88;;;17.30;99.90;;;;;;5066535;28;20111;-40
2021/07/05 06:23:28;;;;;;;9.05;4.32;;;17.40;99.90;;;;;;5057520;28;20155;-43
2021/07/05 06:25:55;;;;;;;9.60;4.00;;;17.40;99.90;;;;;;5053435;28;20025;-44
2021/07/05 06:28:22;;;;;;;13.73;8.65;;;17.40;99.90;;;;;;5052451;28;20259;-41
2021/07/05 06:30:48;;;;;;;12.70;4.80;;;17.50;99.90;;;;;;5054179;28;20033;-44
2021/07/05 06:33:16;;;;;;;13.13;4.05;;;17.50;99.90;;;;;;5053894;28;20029;-42
2021/07/05 06:35:42;;;;;;;10.23;4.00;;;17.50;99.90;;;;;;5053745;28;20029;-42
2021/07/05 06:38:09;;;;;;;10.23;4.15;;;17.60;99.90;;;;;;5053568;28;20113;-42
2021/07/05 06:40:35;;;;;;;5.22;4.03;;;17.50;99.90;;;;;;5052617;28;20083;-44
2021/07/05 06:43:01;;;;;;;5.45;3.40;;;17.60;99.90;;;;;;5052477;28;20478;-43
2021/07/05 06:45:27;;;;;;;5.25;3.22;;;17.60;99.90;;;;;;5052480;28;20047;-42
2021/07/05 06:47:52;;;;;;;5.03;3.28;;;17.70;99.90;;;;;;5052527;28;20021;-42
2021/07/05 06:50:18;;;;;;;6.70;2.90;;;17.70;99.90;;;;;;5052052;28;20033;-44
2021/07/05 06:52:44;;;;;;;7.22;3.30;;;17.70;99.90;;;;;;5052031;28;20471;-43
2021/07/05 06:55:12;;;;;;;8.38;2.90;;;17.80;99.90;;;;;;5051554;28;20113;-44
2021/07/05 06:57:38;;;;;;;7.47;3.42;;;17.70;99.90;;;;;;5066959;22;20056;-46
2021/07/05 07:00:12;;;;;;;2.55;2.35;;;17.70;99.90;;;;;;5051723;28;20505;-47
2021/07/05 07:02:39;;;;;;;5.75;2.28;;;17.70;99.90;;;;;;5051648;28;20021;-45
2021/07/05 07:05:06;;;;;;;3.38;2.70;;;17.80;99.90;;;;;;5051728;28;20029;-49
2021/07/05 07:07:32;;;;;;;4.43;3.00;;;17.80;99.90;;;;;;5062409;28;20021;-48
2021/07/05 07:09:57;;;;;;;3.75;2.85;;;17.90;99.90;;;;;;5051542;28;20052;-49
2021/07/05 07:12:23;;;;;;;4.50;2.67;;;17.80;99.90;;;;;;5055130;28;20029;-45
2021/07/05 07:14:49;;;;;;;7.85;2.60;;;17.90;99.90;;;;;;5068856;28;20047;-47
2021/07/05 07:17:38;;;;;;;7.97;3.08;;;17.80;99.90;;;;;;5053422;28;20089;-51
2021/07/05 07:20:00;;;;;;;4.32;2.53;;;17.90;99.90;;;;;;5051476;28;20128;-47
2021/07/05 07:22:25;;;;;;;6.43;2.88;;;17.90;99.90;;;;;;5051182;28;20052;-46
2021/07/05 07:24:51;;;;;;;5.43;3.00;;;17.90;99.90;;;;;;5051474;28;20406;-47
2021/07/05 07:27:17;;;;;;;3.70;2.88;;;17.90;99.90;;;;;;5052448;28;20021;-50
2021/07/05 07:29:42;;;;;;;5.20;2.47;;;18.00;99.90;;;;;;5058718;28;20386;-52
2021/07/05 07:32:08;;;;;;;3.70;2.20;;;18.00;99.90;;;;;;5061376;28;20036;-46
2021/07/05 07:34:34;;;;;;;4.70;2.10;;;18.10;99.90;;;;;;5070224;28;20021;-45
2021/07/05 07:37:03;;;;;;;3.60;2.33;;;18.10;99.90;;;;;;5068538;28;20032;-47
2021/07/05 07:39:41;;;;;;;6.30;2.40;;;18.10;99.90;;;;;;5070980;28;20056;-49
2021/07/05 07:42:07;;;;;;;4.97;2.60;;;18.10;99.90;;;;;;5053603;28;20519;-50
2021/07/05 07:44:34;;;;;;;7.55;3.08;;;18.10;99.90;;;;;;5050027;28;20045;-49
2021/07/05 07:47:00;;;;;;;4.47;2.50;;;18.10;99.90;;;;;;5051772;28;20024;-46
2021/07/05 07:49:27;;;;;;;7.05;2.20;;;18.10;99.90;;;;;;5050687;28;20017;-45
2021/07/05 07:51:53;;;;;;;3.55;2.45;;;18.10;99.90;;;;;;5063360;28;20056;-50
2021/07/05 07:54:18;;;;;;;2.60;2.40;;;18.10;99.90;;;;;;5049639;28;20068;-49
2021/07/05 07:56:44;;;;;;;2.47;2.10;;;18.20;99.90;;;;;;5048805;28;20035;-47
2021/07/05 07:59:09;;;;;;;6.80;2.55;;;18.20;99.90;;;;;;5049385;28;20029;-54
2021/07/05 08:01:36;;;;;;;7.15;2.42;;;18.20;99.90;;;;;;5051525;28;20052;-49
2021/07/05 08:04:02;;;;;;;4.78;2.40;;;18.20;99.90;;;;;;5052324;28;20029;-48
2021/07/05 08:06:27;;;;;;;16.25;3.55;;;18.30;99.90;;;;;;5059928;28;20027;-54
2021/07/05 08:08:53;;;;;;;3.58;2.30;;;18.40;99.90;;;;;;5031470;28;20589;-48
2021/07/05 08:11:20;;;;;;;5.88;2.30;;;18.50;99.90;;;;;;5031835;28;20025;-54
2021/07/05 08:13:45;;;;;;;13.90;8.20;;;18.60;99.90;;;;;;5031204;28;20029;-52
2021/07/05 08:16:11;;;;;;;16.25;11.18;;;18.60;99.90;;;;;;5049061;28;20039;-53
2021/07/05 08:18:36;;;;;;;6.32;2.38;;;18.70;99.90;;;;;;5049431;28;20033;-50
2021/07/05 08:21:03;;;;;;;3.72;1.92;;;18.80;99.90;;;;;;5049666;28;20040;-49
2021/07/05 08:23:30;;;;;;;6.50;1.90;;;19.00;99.90;;;;;;5048620;28;20013;-54
2021/07/05 08:25:55;;;;;;;2.80;1.90;;;19.20;99.90;;;;;;5049781;28;20021;-59
2021/07/05 08:28:23;;;;;;;3.63;2.58;;;19.80;99.90;;;;;;5049867;28;20017;-56
2021/07/05 08:30:49;;;;;;;4.63;2.28;;;20.40;99.90;;;;;;5048084;28;20512;-49
2021/07/05 08:33:15;;;;;;;2.28;1.90;;;21.00;99.90;;;;;;5048750;28;20041;-46
2021/07/05 08:35:40;;;;;;;5.03;1.50;;;21.60;99.90;;;;;;5050646;28;20518;-51
2021/07/05 08:38:06;;;;;;;3.80;1.40;;;22.10;99.90;;;;;;5033857;28;20129;-52
2021/07/05 08:40:31;;;;;;;3.67;1.70;;;22.30;99.90;;;;;;5030462;28;20113;-58
2021/07/05 08:42:59;;;;;;;5.95;1.80;;;22.70;99.90;;;;;;5030534;28;20031;-55
2021/07/05 08:45:25;;;;;;;3.50;1.52;;;23.00;99.90;;;;;;5033296;28;20041;-63
2021/07/05 08:47:53;;;;;;;2.03;1.60;;;23.20;99.90;;;;;;5044048;28;20394;-61
2021/07/05 08:50:21;;;;;;;1.48;1.40;;;23.40;99.90;;;;;;5036431;28;20021;-60
2021/07/05 08:52:46;;;;;;;2.25;1.90;;;23.20;99.10;;;;;;5036109;28;20070;-55
2021/07/05 08:55:16;;;;;;;3.70;1.80;;;22.90;99.00;;;;;;5054064;28;20017;-54
2021/07/05 08:57:42;;;;;;;1.50;1.40;;;22.70;99.90;;;;;;5036051;28;20060;-51
2021/07/05 09:00:23;;;;;;;1.13;1.02;;;22.60;99.90;;;;;;5053973;28;20029;-55
2021/07/05 09:02:49;;;;;;;4.53;1.20;;;22.60;99.90;;;;;;5052910;28;20023;-56
2021/07/05 09:05:15;;;;;;;3.20;1.42;;;22.80;99.90;;;;;;5053814;28;20033;-58
2021/07/05 09:08:08;;;;;;;3.83;1.30;;;23.10;99.50;;;;;;5053739;28;20025;-53
2021/07/05 09:10:52;;;;;;;1.73;1.40;;;23.10;99.20;;;;;;5051790;28;20045;-49
2021/07/05 09:13:26;;;;;;;3.55;1.40;;;22.90;99.90;;;;;;5054055;28;20063;-58
2021/07/05 09:15:54;;;;;;;5.05;1.48;;;22.70;99.90;;;;;;5054236;28;20440;-55
2021/07/05 09:18:32;;;;;;;2.88;1.52;;;22.40;99.40;;;;;;5052588;28;20398;-56
2021/07/05 09:21:28;;;;;;;5.03;1.20;;;22.20;99.90;;;;;;5053688;28;20047;-56
2021/07/05 09:24:01;;;;;;;2.88;1.80;;;22.00;99.90;;;;;;5049006;28;20475;-46
2021/07/05 09:26:37;;;;;;;2.17;1.42;;;22.10;99.90;;;;;;5053983;28;20117;-55
2021/07/05 09:29:15;;;;;;;1.92;1.40;;;22.40;99.90;;;;;;5053856;28;20021;-48
2021/07/05 09:31:47;;;;;;;3.28;1.00;;;22.50;99.90;;;;;;5053902;28;20033;-56
2021/07/05 09:34:25;;;;;;;3.50;1.15;;;22.40;99.90;;;;;;5053551;28;20044;-57
2021/07/05 09:36:54;;;;;;;0.90;0.90;;;22.40;99.90;;;;;;5053204;28;20043;-47
2021/07/05 09:39:23;;;;;;;2.22;1.13;;;22.30;99.30;;;;;;5063655;28;20020;-49
2021/07/05 09:41:52;;;;;;;4.57;1.10;;;22.30;99.70;;;;;;5064684;28;20047;-51
2021/07/05 09:44:20;;;;;;;7.30;1.45;;;22.20;99.90;;;;;;5052820;28;20022;-50
2021/07/05 09:46:47;;;;;;;1.25;1.08;;;22.30;99.90;;;;;;5052977;28;20428;-55
2021/07/05 09:49:22;;;;;;;3.60;1.27;;;22.30;99.90;;;;;;5053298;28;20033;-52
2021/07/05 09:52:09;;;;;;;6.78;1.40;;;22.20;99.90;;;;;;5036378;28;20064;-50
2021/07/05 09:54:37;;;;;;;2.45;1.42;;;22.10;99.90;;;;;;5039741;28;20036;-55
2021/07/05 09:57:06;;;;;;;2.58;1.08;;;21.90;99.90;;;;;;5051674;28;20051;-49
2021/07/05 09:59:32;;;;;;;3.78;1.33;;;21.70;99.90;;;;;;5052970;28;20032;-50
2021/07/05 10:01:59;;;;;;;2.30;1.30;;;21.40;99.90;;;;;;5052984;28;20418;-52
2021/07/05 10:04:28;;;;;;;1.60;1.50;;;21.30;99.90;;;;;;5052740;28;20370;-50
2021/07/05 10:07:02;;;;;;;1.70;1.40;;;21.20;99.90;;;;;;5052820;28;20108;-53
2021/07/05 10:09:34;;;;;;;3.45;1.48;;;21.10;99.90;;;;;;5052903;28;20025;-49
2021/07/05 10:12:24;;;;;;;1.20;1.02;;;21.00;99.90;;;;;;5052911;28;20013;-54
2021/07/05 10:15:03;;;;;;;1.35;1.20;;;20.90;99.90;;;;;;5034501;28;20022;-55
2021/07/05 10:17:34;;;;;;;2.75;1.17;;;20.80;99.90;;;;;;5052624;28;20394;-51
2021/07/05 10:20:02;;;;;;;1.38;1.27;;;20.90;99.90;;;;;;5052484;28;20017;-52
2021/07/05 10:22:28;;;;;;;1.88;1.42;;;20.80;99.90;;;;;;5052657;28;20028;-53
2021/07/05 10:24:54;;;;;;;3.25;1.27;;;20.70;99.90;;;;;;5052496;28;20393;-52
2021/07/05 10:27:20;;;;;;;2.92;1.42;;;20.70;99.90;;;;;;5052456;28;20021;-49
2021/07/05 10:29:48;;;;;;;1.33;1.20;;;20.60;99.90;;;;;;5052406;28;20021;-51
2021/07/05 10:32:14;;;;;;;1.88;1.10;;;20.50;99.90;;;;;;5052135;28;20043;-51
2021/07/05 10:34:41;;;;;;;2.22;1.38;;;20.50;99.90;;;;;;5052016;28;20352;-51
2021/07/05 10:37:11;;;;;;;2.83;1.13;;;20.50;99.90;;;;;;5052102;28;20021;-51
2021/07/05 10:39:38;;;;;;;1.13;1.02;;;20.50;99.90;;;;;;5051891;28;20111;-53
2021/07/05 10:42:31;;;;;;;2.55;1.35;;;20.60;99.90;;;;;;5051960;28;20036;-53
2021/07/05 10:44:57;;;;;;;3.42;1.25;;;20.50;99.90;;;;;;5052085;28;20025;-51
2021/07/05 10:47:46;;;;;;;3.50;1.17;;;20.40;99.90;;;;;;5051966;28;20096;-52
2021/07/05 10:50:45;;;;;;;1.65;1.38;;;20.40;99.90;;;;;;5052069;28;20025;-54
2021/07/05 10:53:12;;;;;;;1.90;1.30;;;20.30;99.90;;;;;;5051881;28;20033;-54
2021/07/05 10:55:44;;;;;;;2.20;1.20;;;20.20;99.90;;;;;;5051848;28;20025;-49
2021/07/05 10:58:32;;;;;;;4.13;1.92;;;20.20;99.90;;;;;;5051570;28;20091;-53
2021/07/05 11:01:05;;;;;;;4.80;1.50;;;20.30;99.90;;;;;;5051648;28;20125;-53
2021/07/05 11:03:37;;;;;;;5.20;1.67;;;20.20;99.90;;;;;;5051434;28;20025;-51
2021/07/05 11:06:28;;;;;;;3.47;1.92;;;20.20;99.90;;;;;;5051562;28;20528;-55
2021/07/05 11:08:55;;;;;;;5.05;1.90;;;20.30;99.90;;;;;;5051201;28;20100;-52
2021/07/05 11:11:27;;;;;;;1.75;1.65;;;20.20;99.90;;;;;;5051418;28;20036;-51
2021/07/05 11:14:15;;;;;;;9.43;2.05;;;19.90;99.90;;;;;;5051012;28;20033;-53
2021/07/05 11:17:10;;;;;;;2.15;1.85;;;19.80;99.90;;;;;;5051406;28;20033;-52
2021/07/05 11:19:41;;;;;;;2.53;1.70;;;19.80;99.90;;;;;;5051243;28;20029;-53
2021/07/05 11:22:40;;;;;;;2.50;1.90;;;19.90;99.90;;;;;;5051312;28;20044;-51
2021/07/05 11:25:22;;;;;;;1.88;1.77;;;20.10;99.90;;;;;;5023302;28;20060;-52
2021/07/05 11:27:49;;;;;;;1.55;1.45;;;20.20;99.90;;;;;;5051208;28;20090;-56
2021/07/05 11:30:23;;;;;;;2.45;1.52;;;20.20;99.90;;;;;;5051107;28;20471;-56
2021/07/05 11:33:04;;;;;;;1.95;1.80;;;20.20;99.90;;;;;;5051597;28;20025;-53
2021/07/05 11:35:47;;;;;;;4.78;1.75;;;20.20;99.90;;;;;;5050727;28;20096;-51
2021/07/05 11:38:23;;;;;;;2.15;1.20;;;20.30;99.90;;;;;;5050826;28;20059;-52
2021/07/05 11:41:05;;;;;;;1.80;1.20;;;20.40;99.90;;;;;;5051762;28;20044;-55
2021/07/05 11:43:49;;;;;;;2.72;1.55;;;20.40;99.90;;;;;;5052050;28;20063;-54
2021/07/05 11:46:36;;;;;;;1.67;1.17;;;20.50;99.90;;;;;;5050870;28;20029;-53
2021/07/05 11:49:07;;;;;;;3.97;1.40;;;20.50;99.90;;;;;;5036438;28;20052;-56
2021/07/05 11:51:38;;;;;;;1.23;1.13;;;20.60;99.90;;;;;;5050887;28;20017;-54
2021/07/05 11:54:05;;;;;;;1.77;1.00;;;20.60;99.90;;;;;;5050493;28;20060;-53
2021/07/05 11:56:41;;;;;;;2.67;1.10;;;20.60;99.90;;;;;;5050519;28;20024;-52
2021/07/05 11:59:12;;;;;;;5.45;1.40;;;20.60;99.90;;;;;;5050909;28;20025;-52
2021/07/05 12:01:39;;;;;;;2.13;1.42;;;20.70;99.90;;;;;;5050615;28;20033;-56
2021/07/05 12:04:06;;;;;;;2.92;1.13;;;20.70;99.90;;;;;;5050506;28;20021;-53
2021/07/05 12:06:32;;;;;;;2.28;1.48;;;20.80;99.90;;;;;;5050831;28;20025;-50
2021/07/05 12:09:07;;;;;;;3.65;1.38;;;20.70;99.90;;;;;;5032735;28;20057;-51
2021/07/05 12:11:42;;;;;;;1.30;1.20;;;20.80;99.90;;;;;;5050436;28;20051;-56
2021/07/05 12:14:15;;;;;;;1.42;1.20;;;20.90;99.90;;;;;;5050306;28;20082;-56
2021/07/05 12:16:44;;;;;;;4.25;1.20;;;21.00;99.90;;;;;;5032627;28;20390;-52
2021/07/05 12:19:12;;;;;;;1.98;1.50;;;21.10;99.90;;;;;;5049726;28;20103;-53
2021/07/05 12:22:11;;;;;;;3.05;1.20;;;21.20;99.90;;;;;;5050373;28;20029;-53
2021/07/05 12:24:38;;;;;;;3.10;1.40;;;21.20;99.90;;;;;;5046027;28;20029;-55
2021/07/05 12:27:15;;;;;;;6.47;1.50;;;21.30;99.90;;;;;;5050283;28;20021;-53
2021/07/05 12:29:49;;;;;;;1.27;1.17;;;21.30;99.90;;;;;;5032572;28;20379;-54
2021/07/05 12:32:19;;;;;;;1.70;1.27;;;21.40;99.90;;;;;;5050346;28;20017;-55
2021/07/05 12:34:49;;;;;;;3.28;1.20;;;21.50;99.90;;;;;;5050329;28;20028;-53
2021/07/05 12:37:16;;;;;;;3.83;1.52;;;21.40;99.90;;;;;;5050080;28;20018;-54
2021/07/05 12:39:46;;;;;;;5.07;2.20;;;21.30;99.90;;;;;;5050155;28;20424;-55
2021/07/05 12:42:28;;;;;;;5.43;1.50;;;21.20;99.90;;;;;;5050337;28;20024;-54
2021/07/05 12:44:55;;;;;;;2.58;1.33;;;21.10;99.90;;;;;;5050135;28;20028;-55
2021/07/05 12:47:21;;;;;;;2.05;1.42;;;21.00;99.90;;;;;;5050795;28;20040;-52
2021/07/05 12:49:48;;;;;;;5.75;1.60;;;20.90;99.90;;;;;;5050316;28;20024;-52
2021/07/05 12:52:14;;;;;;;1.27;0.93;;;20.90;99.90;;;;;;5050397;28;20355;-50
2021/07/05 12:54:39;;;;;;;1.08;0.93;;;20.90;99.90;;;;;;5031938;28;20021;-51